createdAt,value
2019-02-18T00:02:11.076Z,96142.24
2019-02-18T00:04:41.458Z,96137.75
2019-02-18T00:07:14.598Z,96134.97
2019-02-18T00:09:43.708Z,96137.53
2019-02-18T00:12:14.038Z,96133.77
2019-02-18T00:14:44.346Z,96141.53
2019-02-18T00:17:14.659Z,96134.00
2019-02-18T00:19:44.885Z,96134.70
2019-02-18T00:22:15.187Z,96136.46
2019-02-18T00:24:45.486Z,96131.31
2019-02-18T00:27:15.810Z,96138.23
2019-02-18T00:29:46.148Z,96134.03
2019-02-18T00:32:16.442Z,96135.16
2019-02-18T00:34:46.672Z,96130.45
2019-02-18T00:37:24.185Z,96130.88
2019-02-18T00:39:49.042Z,96130.38
2019-02-18T00:42:19.344Z,96129.95
2019-02-18T00:44:49.587Z,96125.55
2019-02-18T00:47:19.872Z,96121.48
2019-02-18T00:49:50.322Z,96122.05
2019-02-18T00:52:20.588Z,96118.41
2019-02-18T00:54:50.834Z,96119.03
2019-02-18T00:57:21.115Z,96114.78
2019-02-18T00:59:51.466Z,96117.72
2019-02-18T01:02:21.753Z,96108.99
2019-02-18T01:04:52.301Z,96112.61
2019-02-18T01:07:22.602Z,96114.94
2019-02-18T01:09:52.955Z,96112.29
2019-02-18T01:12:23.432Z,96107.53
2019-02-18T01:14:53.695Z,96101.70
2019-02-18T01:17:24.000Z,96103.90
2019-02-18T01:19:54.331Z,96101.44
2019-02-18T01:22:24.606Z,96099.83
2019-02-18T01:24:54.846Z,96094.91
2019-02-18T01:27:25.143Z,96098.52
2019-02-18T01:29:55.495Z,96102.77
2019-02-18T01:32:25.795Z,96100.75
2019-02-18T01:34:56.050Z,96100.41
2019-02-18T01:37:26.363Z,96093.90
2019-02-18T01:39:56.763Z,96092.59
2019-02-18T01:42:27.031Z,96093.47
2019-02-18T01:44:57.321Z,96093.55
2019-02-18T01:47:27.602Z,96088.06
2019-02-18T01:49:58.347Z,96094.36
2019-02-18T01:52:28.733Z,96088.93
2019-02-18T01:54:59.077Z,96090.47
2019-02-18T01:57:29.578Z,96087.40
2019-02-18T01:59:59.810Z,96085.84
2019-02-18T02:02:30.106Z,96087.79
2019-02-18T02:05:00.435Z,96080.68
2019-02-18T02:07:30.738Z,96079.94
2019-02-18T02:10:01.008Z,96097.87
2019-02-18T02:12:31.326Z,96084.56
2019-02-18T02:15:01.696Z,96080.23
2019-02-18T02:17:32.037Z,96080.84
2019-02-18T02:20:02.280Z,96077.27
2019-02-18T02:22:32.558Z,96079.59
2019-02-18T02:25:02.917Z,96075.52
2019-02-18T02:27:33.233Z,96074.83
2019-02-18T02:30:03.676Z,96075.91
2019-02-18T02:32:34.005Z,96071.97
2019-02-18T02:35:04.308Z,96075.87
2019-02-18T02:37:34.606Z,96079.44
2019-02-18T02:40:05.365Z,96082.20
2019-02-18T02:42:35.667Z,96078.86
2019-02-18T02:45:06.144Z,96081.09
2019-02-18T02:47:36.436Z,96083.45
2019-02-18T02:50:06.797Z,96076.28
2019-02-18T02:52:37.167Z,96080.97
2019-02-18T02:55:07.430Z,96087.53
2019-02-18T02:57:37.699Z,96080.52
2019-02-18T03:00:09.459Z,96086.80
2019-02-18T03:02:39.758Z,96087.04
2019-02-18T03:05:10.170Z,96077.38
2019-02-18T03:07:40.456Z,96082.52
2019-02-18T03:10:11.014Z,96088.74
2019-02-18T03:12:41.306Z,96083.99
2019-02-18T03:15:11.653Z,96083.48
2019-02-18T03:17:41.910Z,96087.36
2019-02-18T03:20:13.563Z,96087.97
2019-02-18T03:22:43.858Z,96091.75
2019-02-18T03:25:22.252Z,96088.31
2019-02-18T03:27:55.930Z,96094.99
2019-02-18T03:30:59.740Z,96098.48
2019-02-18T03:33:52.401Z,96097.16
2019-02-18T03:36:22.735Z,96100.45
2019-02-18T03:38:53.079Z,96101.19
2019-02-18T03:41:23.329Z,96105.52
2019-02-18T03:43:53.618Z,96104.55
2019-02-18T03:46:23.901Z,96100.94
2019-02-18T03:48:54.190Z,96103.90
2019-02-18T03:51:24.892Z,96106.89
2019-02-18T03:53:55.615Z,96106.75
2019-02-18T03:56:25.884Z,96107.66
2019-02-18T03:58:56.392Z,96113.22
2019-02-18T04:01:26.731Z,96113.36
2019-02-18T04:03:57.017Z,96114.11
2019-02-18T04:06:27.253Z,96119.01
2019-02-18T04:08:57.618Z,96120.00
2019-02-18T04:11:27.981Z,96121.75
2019-02-18T04:13:58.317Z,96122.39
2019-02-18T04:16:28.555Z,96118.52
2019-02-18T04:18:58.858Z,96120.91
2019-02-18T04:21:29.198Z,96120.19
2019-02-18T04:23:59.553Z,96121.36
2019-02-18T04:26:29.840Z,96119.33
2019-02-18T04:29:00.104Z,96122.36
2019-02-18T04:31:30.352Z,96115.12
2019-02-18T04:34:00.660Z,96120.28
2019-02-18T04:36:31.004Z,96125.72
2019-02-18T04:39:01.302Z,96133.43
2019-02-18T04:41:31.539Z,96127.19
2019-02-18T04:44:01.830Z,96131.05
2019-02-18T04:46:32.180Z,96126.16
2019-02-18T04:49:02.439Z,96127.38
2019-02-18T04:51:32.769Z,96128.47
2019-02-18T04:54:03.222Z,96125.78
2019-02-18T04:56:33.575Z,96132.08
2019-02-18T04:59:03.968Z,96127.52
2019-02-18T05:01:34.242Z,96131.49
2019-02-18T05:04:04.498Z,96135.92
2019-02-18T05:06:34.794Z,96136.55
2019-02-18T05:09:06.013Z,96139.98
2019-02-18T05:11:36.405Z,96142.02
2019-02-18T05:14:06.691Z,96142.20
2019-02-18T05:16:36.927Z,96146.06
2019-02-18T05:19:07.314Z,96152.02
2019-02-18T05:21:37.673Z,96159.08
2019-02-18T05:24:07.966Z,96163.10
2019-02-18T05:26:38.213Z,96165.44
2019-02-18T05:29:08.513Z,96166.23
2019-02-18T05:31:38.871Z,96168.03
2019-02-18T05:34:09.147Z,96167.36
2019-02-18T05:36:39.460Z,96171.47
2019-02-18T05:39:17.926Z,96169.13
2019-02-18T05:41:42.257Z,96169.98
2019-02-18T05:44:12.571Z,96173.84
2019-02-18T05:46:42.877Z,95954.50
2019-02-18T05:49:13.155Z,96180.59
2019-02-18T05:51:43.393Z,96184.22
2019-02-18T05:54:13.872Z,96192.67
2019-02-18T05:56:44.333Z,96195.83
2019-02-18T05:59:14.762Z,96191.47
2019-02-18T06:01:45.162Z,96190.41
2019-02-18T06:04:15.474Z,96191.70
2019-02-18T06:06:45.837Z,96192.36
2019-02-18T06:09:16.143Z,96191.53
2019-02-18T06:11:46.386Z,96193.97
2019-02-18T06:14:16.670Z,96187.22
2019-02-18T06:16:47.005Z,96197.40
2019-02-18T06:19:17.301Z,96198.05
2019-02-18T06:21:47.619Z,96195.26
2019-02-18T06:24:17.955Z,96197.89
2019-02-18T06:26:48.289Z,96198.30
2019-02-18T06:29:18.582Z,96202.45
2019-02-18T06:31:48.828Z,96206.77
2019-02-18T06:34:19.118Z,96198.83
2019-02-18T06:36:49.460Z,96199.39
2019-02-18T06:39:19.767Z,96196.66
2019-02-18T06:41:49.978Z,96202.48
2019-02-18T06:44:24.639Z,96196.55
2019-02-18T06:47:00.084Z,96200.30
2019-02-18T06:49:31.116Z,96208.06
2019-02-18T06:52:01.381Z,96204.62
2019-02-18T06:54:31.783Z,96203.91
2019-02-18T06:57:22.570Z,96201.95
2019-02-18T06:59:55.564Z,96203.45
2019-02-18T07:02:32.388Z,96199.78
2019-02-18T07:05:13.942Z,96200.48
2019-02-18T07:08:01.802Z,96192.67
2019-02-18T07:10:38.641Z,96188.03
2019-02-18T07:13:09.017Z,96191.20
2019-02-18T07:15:39.317Z,96193.14
2019-02-18T07:18:09.580Z,96202.94
2019-02-18T07:20:39.891Z,96199.82
2019-02-18T07:23:10.258Z,96201.48
2019-02-18T07:25:40.564Z,96193.13
2019-02-18T07:28:10.881Z,96193.38
2019-02-18T07:30:41.191Z,96186.94
2019-02-18T07:33:11.651Z,96187.66
2019-02-18T07:35:42.656Z,96191.58
2019-02-18T07:38:12.987Z,96185.46
2019-02-18T07:40:43.321Z,96187.78
2019-02-18T07:43:13.726Z,96186.24
2019-02-18T07:45:44.037Z,96180.57
2019-02-18T07:48:14.368Z,96181.00
2019-02-18T07:50:44.671Z,96186.23
2019-02-18T07:53:15.185Z,96189.60
2019-02-18T07:55:45.658Z,96181.86
2019-02-18T07:58:16.123Z,96177.09
2019-02-18T08:00:46.576Z,96179.44
2019-02-18T08:03:16.818Z,96179.45
2019-02-18T08:05:47.150Z,96172.19
2019-02-18T08:08:17.526Z,96173.98
2019-02-18T08:10:47.830Z,96175.33
2019-02-18T08:13:18.052Z,96168.89
2019-02-18T08:15:48.358Z,96170.97
2019-02-18T08:18:18.689Z,96163.99
2019-02-18T08:20:48.973Z,96156.14
2019-02-18T08:23:19.271Z,96160.00
2019-02-18T08:25:49.677Z,96160.10
2019-02-18T08:28:20.000Z,96150.99
2019-02-18T08:30:50.345Z,96156.92
2019-02-18T08:33:20.676Z,96151.36
2019-02-18T08:35:51.012Z,96146.70
2019-02-18T08:38:21.251Z,96145.89
2019-02-18T08:40:51.533Z,96144.72
2019-02-18T08:43:21.873Z,96139.84
2019-02-18T08:45:52.166Z,96139.75
2019-02-18T08:48:24.072Z,96140.20
2019-02-18T08:50:54.582Z,96132.23
2019-02-18T08:53:24.942Z,96128.08
2019-02-18T08:55:55.309Z,96131.62
2019-02-18T08:58:25.657Z,96123.94
2019-02-18T09:01:02.613Z,96125.29
2019-02-18T09:03:27.997Z,96127.69
2019-02-18T09:05:58.272Z,96122.04
2019-02-18T09:08:28.645Z,96121.61
2019-02-18T09:10:58.951Z,96119.70
2019-02-18T09:13:29.188Z,96124.36
2019-02-18T09:16:00.478Z,96115.24
2019-02-18T09:18:30.993Z,96117.43
2019-02-18T09:21:01.270Z,96119.42
2019-02-18T09:23:42.524Z,96115.00
2019-02-18T09:26:15.663Z,96114.58
2019-02-18T09:28:46.004Z,96117.02
2019-02-18T09:31:17.931Z,96106.30
2019-02-18T09:33:48.166Z,96097.70
2019-02-18T09:36:18.472Z,96086.52
2019-02-18T09:38:48.822Z,96099.08
2019-02-18T09:41:19.120Z,96092.86
2019-02-18T09:43:49.343Z,96090.40
2019-02-18T09:46:19.646Z,96086.80
2019-02-18T09:48:49.920Z,96083.25
2019-02-18T09:51:20.245Z,96079.78
2019-02-18T09:53:50.606Z,96077.17
2019-02-18T09:56:21.387Z,96068.81
2019-02-18T09:58:51.803Z,96072.48
2019-02-18T10:01:22.755Z,96064.64
2019-02-18T10:03:55.431Z,96059.60
2019-02-18T10:06:25.700Z,96058.08
2019-02-18T10:08:55.954Z,96055.97
2019-02-18T10:11:26.294Z,96048.78
2019-02-18T10:13:56.663Z,96048.29
2019-02-18T10:16:26.972Z,96048.69
2019-02-18T10:18:57.222Z,96041.98
2019-02-18T10:21:27.535Z,96035.38
2019-02-18T10:23:57.970Z,96035.62
2019-02-18T10:26:28.257Z,96031.58
2019-02-18T10:28:58.555Z,96020.99
2019-02-18T10:31:28.859Z,96026.16
2019-02-18T10:33:59.100Z,96013.51
2019-02-18T10:36:29.392Z,96003.35
2019-02-18T10:38:59.729Z,95999.06
2019-02-18T10:41:30.146Z,95991.45
2019-02-18T10:44:00.383Z,95986.54
2019-02-18T10:46:30.699Z,95986.20
2019-02-18T10:49:01.065Z,95981.05
2019-02-18T10:51:31.354Z,95980.16
2019-02-18T10:54:01.677Z,95975.16
2019-02-18T10:56:32.340Z,95975.77
2019-02-18T10:59:02.785Z,95965.17
2019-02-18T11:01:33.132Z,95960.78
2019-02-18T11:04:03.471Z,95951.27
2019-02-18T11:06:33.762Z,95946.20
2019-02-18T11:09:06.020Z,95941.77
2019-02-18T11:11:36.300Z,95942.88
2019-02-18T11:14:07.191Z,95930.67
2019-02-18T11:16:38.358Z,95932.11
2019-02-18T11:19:08.870Z,95930.90
2019-02-18T11:21:39.379Z,95923.28
2019-02-18T11:24:10.483Z,95915.77
2019-02-18T11:26:41.466Z,95913.73
2019-02-18T11:29:12.324Z,95914.09
2019-02-18T11:31:43.101Z,95914.25
2019-02-18T11:34:13.660Z,95915.59
2019-02-18T11:36:44.617Z,95903.74
2019-02-18T11:39:15.769Z,95897.77
2019-02-18T11:41:47.045Z,95897.03
2019-02-18T11:44:17.382Z,95900.30
2019-02-18T11:46:47.742Z,95892.69
2019-02-18T11:49:17.984Z,95882.12
2019-02-18T11:51:48.273Z,95877.97
2019-02-18T11:54:19.138Z,95873.85
2019-02-18T11:56:49.751Z,95867.39
2019-02-18T11:59:24.248Z,95863.22
2019-02-18T12:01:52.365Z,95856.47
2019-02-18T12:04:22.886Z,95859.39
2019-02-18T12:06:53.599Z,95860.59
2019-02-18T12:09:23.837Z,95848.44
2019-02-18T12:11:54.138Z,95692.49
2019-02-18T12:14:24.484Z,95844.94
2019-02-18T12:16:54.897Z,95846.21
2019-02-18T12:19:25.547Z,95837.00
2019-02-18T12:21:56.668Z,95841.39
2019-02-18T12:24:28.186Z,95835.65
2019-02-18T12:26:59.897Z,95832.55
2019-02-18T12:29:31.018Z,95830.88
2019-02-18T12:32:21.403Z,95817.77
2019-02-18T12:34:51.870Z,95816.74
2019-02-18T12:37:22.265Z,95814.52
2019-02-18T12:39:53.527Z,95808.33
2019-02-18T12:42:23.833Z,95817.16
2019-02-18T12:44:54.748Z,95806.88
2019-02-18T12:47:25.096Z,95797.62
2019-02-18T12:49:55.894Z,95790.86
2019-02-18T12:52:26.340Z,95785.50
2019-02-18T12:54:56.707Z,95788.86
2019-02-18T12:57:27.194Z,95780.86
2019-02-18T12:59:58.036Z,95780.28
2019-02-18T13:02:28.383Z,95787.25
2019-02-18T13:04:58.633Z,95775.31
2019-02-18T13:07:28.975Z,95779.80
2019-02-18T13:09:59.231Z,95783.97
2019-02-18T13:12:29.646Z,95781.44
2019-02-18T13:15:00.100Z,95778.52
2019-02-18T13:17:30.626Z,95779.34
2019-02-18T13:20:00.872Z,95778.91
2019-02-18T13:22:31.403Z,95774.09
2019-02-18T13:25:01.743Z,95776.22
2019-02-18T13:27:31.994Z,95770.37
2019-02-18T13:30:02.240Z,95763.66
2019-02-18T13:32:32.635Z,95767.65
2019-02-18T13:35:03.291Z,95764.77
2019-02-18T13:37:34.003Z,95755.64
2019-02-18T13:40:04.519Z,95749.70
2019-02-18T13:42:34.940Z,95759.55
2019-02-18T13:45:05.775Z,95758.47
2019-02-18T13:47:36.446Z,95749.20
2019-02-18T13:50:27.622Z,95758.56
2019-02-18T13:52:58.413Z,95752.42
2019-02-18T13:55:28.832Z,95752.39
2019-02-18T13:57:59.165Z,95751.87
2019-02-18T14:00:30.902Z,95744.08
2019-02-18T14:03:01.327Z,95742.94
2019-02-18T14:05:31.577Z,95747.34
2019-02-18T14:08:02.189Z,95740.95
2019-02-18T14:10:32.524Z,95741.72
2019-02-18T14:13:02.774Z,95740.79
2019-02-18T14:15:33.082Z,95741.11
2019-02-18T14:18:03.688Z,95732.95
2019-02-18T14:20:34.910Z,95732.56
2019-02-18T14:23:05.689Z,95732.69
2019-02-18T14:25:36.211Z,95733.40
2019-02-18T14:28:07.312Z,95731.91
2019-02-18T14:30:38.435Z,95731.91
2019-02-18T14:33:08.696Z,95731.17
2019-02-18T14:35:38.938Z,95730.47
2019-02-18T14:38:09.350Z,95724.53
2019-02-18T14:40:39.971Z,95725.14
2019-02-18T14:43:10.222Z,95717.97
2019-02-18T14:45:40.491Z,95723.16
2019-02-18T14:48:11.442Z,95724.98
2019-02-18T14:50:41.791Z,95719.59
2019-02-18T14:53:12.721Z,95725.10
2019-02-18T14:55:43.184Z,95727.22
2019-02-18T14:58:13.774Z,95722.92
2019-02-18T15:00:45.688Z,95721.78
2019-02-18T15:03:15.949Z,95728.25
2019-02-18T15:05:46.277Z,95730.55
2019-02-18T15:08:16.721Z,95733.11
2019-02-18T15:10:46.971Z,95736.05
2019-02-18T15:13:17.318Z,95737.35
2019-02-18T15:15:47.934Z,95736.38
2019-02-18T15:18:18.246Z,95741.73
2019-02-18T15:20:48.480Z,95735.54
2019-02-18T15:23:18.820Z,95749.95
2019-02-18T15:25:49.156Z,95743.37
2019-02-18T15:28:19.461Z,95744.44
2019-02-18T15:30:49.785Z,95749.45
2019-02-18T15:33:20.207Z,95748.05
2019-02-18T15:35:50.560Z,95745.53
2019-02-18T15:38:20.837Z,95748.49
2019-02-18T15:40:51.072Z,95751.31
2019-02-18T15:43:21.815Z,95758.17
2019-02-18T15:45:52.165Z,95753.72
2019-02-18T15:48:22.417Z,95755.92
2019-02-18T15:50:52.771Z,95755.40
2019-02-18T15:53:23.116Z,95764.74
2019-02-18T15:55:54.198Z,95764.51
2019-02-18T15:58:24.706Z,95761.13
2019-02-18T16:00:55.051Z,95759.98
2019-02-18T16:03:25.370Z,95766.04
2019-02-18T16:05:55.618Z,95772.55
2019-02-18T16:08:25.961Z,95778.72
2019-02-18T16:10:56.303Z,95776.13
2019-02-18T16:13:26.568Z,95776.53
2019-02-18T16:15:56.817Z,95779.75
2019-02-18T16:18:27.191Z,95784.81
2019-02-18T16:20:57.532Z,95787.03
2019-02-18T16:23:27.793Z,95792.88
2019-02-18T16:25:58.042Z,95794.92
2019-02-18T16:28:28.388Z,95790.69
2019-02-18T16:30:58.623Z,95792.95
2019-02-18T16:33:28.967Z,95793.72
2019-02-18T16:35:59.334Z,95798.94
2019-02-18T16:38:29.654Z,95802.24
2019-02-18T16:40:59.899Z,95807.55
2019-02-18T16:43:30.625Z,95810.69
2019-02-18T16:46:01.041Z,95815.25
2019-02-18T16:48:31.679Z,95817.37
2019-02-18T16:51:02.129Z,95832.06
2019-02-18T16:53:32.634Z,95835.46
2019-02-18T16:56:03.126Z,95839.15
2019-02-18T16:58:33.410Z,95842.22
2019-02-18T17:01:05.030Z,95846.17
2019-02-18T17:03:35.856Z,95854.52
2019-02-18T17:06:06.198Z,95852.99
2019-02-18T17:08:36.451Z,95856.48
2019-02-18T17:11:06.723Z,95866.87
2019-02-18T17:13:37.092Z,95868.16
2019-02-18T17:16:07.435Z,95877.44
2019-02-18T17:18:37.855Z,95880.91
2019-02-18T17:21:08.102Z,95882.77
2019-02-18T17:23:38.451Z,95883.52
2019-02-18T17:26:08.806Z,95875.69
2019-02-18T17:28:39.062Z,95878.09
2019-02-18T17:31:09.322Z,95885.78
2019-02-18T17:33:39.653Z,95886.19
2019-02-18T17:36:09.993Z,95890.20
2019-02-18T17:38:40.318Z,95893.09
2019-02-18T17:41:10.585Z,95890.95
2019-02-18T17:43:40.917Z,95892.54
2019-02-18T17:46:11.602Z,95892.79
2019-02-18T17:48:41.866Z,95896.44
2019-02-18T17:51:12.217Z,95898.42
2019-02-18T17:53:42.626Z,95902.38
2019-02-18T17:56:12.882Z,95903.30
2019-02-18T17:58:43.348Z,95892.58
2019-02-18T18:01:13.679Z,95901.90
2019-02-18T18:03:43.914Z,95900.84
2019-02-18T18:06:14.165Z,95902.70
2019-02-18T18:08:44.511Z,95909.02
2019-02-18T18:11:14.871Z,95913.58
2019-02-18T18:13:45.701Z,95918.11
2019-02-18T18:16:15.946Z,95920.22
2019-02-18T18:18:46.279Z,95920.52
2019-02-18T18:21:16.625Z,95920.23
2019-02-18T18:23:46.877Z,95921.03
2019-02-18T18:26:17.131Z,95923.45
2019-02-18T18:28:47.477Z,95915.72
2019-02-18T18:31:17.729Z,95925.01
2019-02-18T18:33:48.089Z,95930.08
2019-02-18T18:36:18.524Z,95923.70
2019-02-18T18:38:48.778Z,95927.69
2019-02-18T18:41:19.402Z,95938.71
2019-02-18T18:43:49.750Z,95937.22
2019-02-18T18:46:20.207Z,95935.61
2019-02-18T18:48:50.464Z,95939.31
2019-02-18T18:51:20.712Z,95945.42
2019-02-18T18:53:51.361Z,95942.77
2019-02-18T18:56:21.835Z,95948.63
2019-02-18T18:58:52.074Z,95948.88
2019-02-18T19:01:22.416Z,95951.25
2019-02-18T19:03:52.771Z,95952.01
2019-02-18T19:06:23.112Z,95951.49
2019-02-18T19:08:53.364Z,95953.62
2019-02-18T19:11:23.699Z,95959.98
2019-02-18T19:13:53.980Z,95959.38
2019-02-18T19:16:24.225Z,95960.23
2019-02-18T19:18:54.553Z,95962.35
2019-02-18T19:21:25.181Z,95971.31
2019-02-18T19:23:55.436Z,95966.78
2019-02-18T19:26:25.741Z,95968.91
2019-02-18T19:28:56.138Z,95965.16
2019-02-18T19:31:26.475Z,95969.64
2019-02-18T19:33:57.104Z,95977.53
2019-02-18T19:36:27.376Z,95978.10
2019-02-18T19:38:57.724Z,95977.23
2019-02-18T19:41:28.067Z,95978.06
2019-02-18T19:43:58.585Z,95987.86
2019-02-18T19:46:28.819Z,95990.48
2019-02-18T19:48:59.172Z,95990.43
2019-02-18T19:51:29.406Z,95993.73
2019-02-18T19:54:00.166Z,95997.03
2019-02-18T19:56:30.503Z,95996.03
2019-02-18T19:59:00.746Z,95992.86
2019-02-18T20:01:31.104Z,95998.38
2019-02-18T20:04:01.443Z,95996.77
2019-02-18T20:06:31.887Z,95999.50
2019-02-18T20:09:02.144Z,96000.09
2019-02-18T20:11:32.504Z,96004.19
2019-02-18T20:14:03.326Z,96004.70
2019-02-18T20:16:33.665Z,95999.98
2019-02-18T20:19:03.916Z,96004.14
2019-02-18T20:21:34.171Z,96002.28
2019-02-18T20:24:04.511Z,96003.90
2019-02-18T20:26:34.842Z,96010.25
2019-02-18T20:29:05.082Z,96013.64
2019-02-18T20:31:35.453Z,96010.61
2019-02-18T20:34:05.713Z,96008.35
2019-02-18T20:36:36.000Z,96008.08
2019-02-18T20:39:07.933Z,96016.83
2019-02-18T20:41:38.361Z,96011.52
2019-02-18T20:44:08.681Z,96015.52
2019-02-18T20:46:38.941Z,96015.00
2019-02-18T20:49:09.295Z,96020.59
2019-02-18T20:51:39.646Z,96015.22
2019-02-18T20:54:10.271Z,96016.03
2019-02-18T20:56:40.672Z,96018.34
2019-02-18T20:59:11.025Z,96018.18
2019-02-18T21:01:41.378Z,96017.02
2019-02-18T21:04:11.614Z,96013.23
2019-02-18T21:06:41.875Z,96029.69
2019-02-18T21:09:12.220Z,96028.44
2019-02-18T21:11:42.467Z,96024.14
2019-02-18T21:14:16.059Z,96019.17
2019-02-18T21:16:44.876Z,96019.49
2019-02-18T21:19:15.112Z,96020.14
2019-02-18T21:21:45.367Z,96016.48
2019-02-18T21:24:15.737Z,96016.03
2019-02-18T21:26:46.087Z,96017.16
2019-02-18T21:29:17.293Z,96015.94
2019-02-18T21:31:47.651Z,96019.05
2019-02-18T21:34:18.346Z,96014.27
2019-02-18T21:36:48.940Z,96020.53
2019-02-18T21:39:19.193Z,96016.45
2019-02-18T21:41:49.439Z,96019.45
2019-02-18T21:44:25.219Z,96021.24
2019-02-18T21:46:51.831Z,96018.98
2019-02-18T21:49:22.128Z,96013.95
2019-02-18T21:51:52.531Z,96021.20
2019-02-18T21:54:22.785Z,96019.66
2019-02-18T21:56:53.090Z,96028.66
2019-02-18T21:59:23.713Z,96028.11
2019-02-18T22:01:54.421Z,96023.02
2019-02-18T22:04:25.364Z,96025.73
2019-02-18T22:06:55.603Z,96029.14
2019-02-18T22:09:25.932Z,96031.39
2019-02-18T22:11:56.349Z,96038.98
2019-02-18T22:14:33.210Z,96034.45
2019-02-18T22:16:58.667Z,96030.41
2019-02-18T22:19:29.002Z,96029.59
2019-02-18T22:21:59.329Z,96035.25
2019-02-18T22:24:29.561Z,96028.66
2019-02-18T22:26:59.798Z,96042.08
2019-02-18T22:29:31.098Z,96034.51
2019-02-18T22:32:01.435Z,96027.30
2019-02-18T22:34:31.701Z,96039.11
2019-02-18T22:37:02.091Z,96040.17
2019-02-18T22:39:32.469Z,96034.89
2019-02-18T22:42:02.809Z,96032.76
2019-02-18T22:44:41.581Z,96033.44
2019-02-18T22:47:05.302Z,96032.92
2019-02-18T22:49:35.641Z,96038.20
2019-02-18T22:52:05.967Z,96032.43
2019-02-18T22:54:36.294Z,96032.55
2019-02-18T22:57:07.013Z,96036.70
2019-02-18T22:59:37.497Z,96031.55
2019-02-18T23:02:09.329Z,96037.22
2019-02-18T23:04:39.739Z,96043.08
2019-02-18T23:07:09.995Z,96037.44
2019-02-18T23:09:40.320Z,96044.84
2019-02-18T23:12:10.939Z,96040.30
2019-02-18T23:14:41.269Z,96041.30
2019-02-18T23:17:11.603Z,96039.02
2019-02-18T23:19:41.856Z,96040.50
2019-02-18T23:22:12.105Z,96043.28
2019-02-18T23:24:42.434Z,96042.61
2019-02-18T23:27:13.038Z,96043.77
2019-02-18T23:29:43.281Z,96048.08
2019-02-18T23:32:13.529Z,96051.06
2019-02-18T23:34:43.970Z,96054.23
2019-02-18T23:37:14.296Z,96048.22
2019-02-18T23:39:44.535Z,96050.17
2019-02-18T23:42:14.766Z,96049.36
2019-02-18T23:44:45.117Z,96049.74
2019-02-18T23:47:15.451Z,96051.75
2019-02-18T23:49:45.697Z,96045.86
2019-02-18T23:52:16.040Z,96043.61
2019-02-18T23:54:46.270Z,96047.63
2019-02-18T23:57:16.718Z,96051.02
2019-02-18T23:59:47.438Z,96054.34
